createdAt,value
2023-01-20T00:00:01.000Z,20.40
2023-01-20T00:01:01.001Z,20.50
2023-01-20T00:02:00.959Z,18.40
2023-01-20T00:03:00.911Z,19.80
2023-01-20T00:04:00.994Z,19.80
2023-01-20T00:05:00.850Z,20.00
2023-01-20T00:06:00.832Z,19.40
2023-01-20T00:07:00.786Z,19.70
2023-01-20T00:08:00.779Z,20.30
2023-01-20T00:09:00.743Z,19.70
2023-01-20T00:10:00.691Z,19.60
2023-01-20T00:11:00.663Z,19.70
2023-01-20T00:12:00.630Z,19.70
2023-01-20T00:13:00.602Z,19.50
2023-01-20T00:14:00.568Z,19.10
2023-01-20T00:15:00.559Z,18.50
2023-01-20T00:16:00.572Z,17.20
2023-01-20T00:17:00.496Z,16.20
2023-01-20T00:18:00.450Z,15.90
2023-01-20T00:19:00.431Z,16.80
2023-01-20T00:20:00.386Z,15.40
2023-01-20T00:21:00.350Z,17.00
2023-01-20T00:22:00.319Z,15.10
2023-01-20T00:23:00.289Z,18.30
2023-01-20T00:24:00.256Z,18.00
2023-01-20T00:25:00.230Z,17.30
2023-01-20T00:26:00.196Z,17.10
2023-01-20T00:27:00.165Z,17.80
2023-01-20T00:28:00.135Z,17.20
2023-01-20T00:29:00.117Z,16.90
2023-01-20T00:30:00.093Z,16.70
2023-01-20T00:31:00.144Z,16.90
2023-01-20T00:32:00.007Z,17.10
2023-01-20T00:32:59.997Z,17.30
2023-01-20T00:33:59.944Z,16.80
2023-01-20T00:34:59.916Z,17.10
2023-01-20T00:35:59.884Z,17.80
2023-01-20T00:36:59.854Z,16.40
2023-01-20T00:37:59.825Z,16.80
2023-01-20T00:38:59.791Z,16.30
2023-01-20T00:39:59.759Z,15.20
2023-01-20T00:40:59.732Z,14.50
2023-01-20T00:41:59.698Z,14.70
2023-01-20T00:42:59.669Z,15.00
2023-01-20T00:43:59.636Z,15.70
2023-01-20T00:44:59.609Z,15.60
2023-01-20T00:45:59.575Z,16.10
2023-01-20T00:46:59.545Z,16.10
2023-01-20T00:47:59.518Z,14.00
2023-01-20T00:48:59.501Z,14.60
2023-01-20T00:49:59.451Z,15.50
2023-01-20T00:50:59.453Z,15.50
2023-01-20T00:51:59.390Z,15.00
2023-01-20T00:52:59.360Z,16.70
2023-01-20T00:53:59.342Z,15.50
2023-01-20T00:54:59.301Z,16.40
2023-01-20T00:55:59.290Z,16.30
2023-01-20T00:56:59.239Z,18.40
2023-01-20T00:57:59.201Z,17.80
2023-01-20T00:58:59.178Z,17.90
2023-01-20T00:59:59.139Z,17.00
2023-01-20T01:00:59.303Z,17.70
2023-01-20T01:01:59.249Z,17.00
2023-01-20T01:02:59.077Z,16.60
2023-01-20T01:03:59.024Z,16.90
2023-01-20T01:04:59.006Z,17.00
2023-01-20T01:05:58.956Z,16.70
2023-01-20T01:06:58.930Z,15.80
2023-01-20T01:07:58.897Z,18.00
2023-01-20T01:08:58.865Z,15.80
2023-01-20T01:09:58.831Z,17.00
2023-01-20T01:10:58.809Z,17.10
2023-01-20T01:11:58.774Z,17.10
2023-01-20T01:12:58.741Z,17.70
2023-01-20T01:13:58.709Z,15.70
2023-01-20T01:14:58.679Z,17.80
2023-01-20T01:15:58.674Z,18.40
2023-01-20T01:16:58.617Z,18.20
2023-01-20T01:17:58.585Z,17.70
2023-01-20T01:18:58.557Z,17.40
2023-01-20T01:19:58.521Z,17.20
2023-01-20T01:20:58.513Z,19.10
2023-01-20T01:21:58.465Z,18.50
2023-01-20T01:22:58.431Z,17.80
2023-01-20T01:23:58.409Z,17.60
2023-01-20T01:24:58.371Z,16.00
2023-01-20T01:25:58.340Z,17.00
2023-01-20T01:26:58.310Z,17.10
2023-01-20T01:27:58.279Z,16.90
2023-01-20T01:28:58.252Z,17.10
2023-01-20T01:29:58.219Z,17.00
2023-01-20T01:30:58.225Z,16.70
2023-01-20T01:31:58.152Z,16.50
2023-01-20T01:32:58.126Z,16.90
2023-01-20T01:33:58.091Z,17.50
2023-01-20T01:34:58.065Z,16.50
2023-01-20T01:35:58.044Z,17.30
2023-01-20T01:36:58.031Z,17.70
2023-01-20T01:37:57.968Z,19.50
2023-01-20T01:38:59.189Z,19.40
2023-01-20T01:39:57.907Z,18.90
2023-01-20T01:40:57.880Z,19.40
2023-01-20T01:41:57.853Z,18.40
2023-01-20T01:42:57.826Z,18.90
2023-01-20T01:43:57.792Z,18.60
2023-01-20T01:44:57.759Z,19.90
2023-01-20T01:45:57.779Z,19.20
2023-01-20T01:46:57.700Z,19.30
2023-01-20T01:47:57.660Z,19.20
2023-01-20T01:48:57.634Z,18.40
2023-01-20T01:49:57.599Z,19.00
2023-01-20T01:50:57.573Z,20.10
2023-01-20T01:51:57.540Z,19.60
2023-01-20T01:52:57.526Z,19.20
2023-01-20T01:53:57.530Z,19.30
2023-01-20T01:54:57.447Z,20.00
2023-01-20T01:55:57.424Z,19.40
2023-01-20T01:56:57.396Z,20.20
2023-01-20T01:57:57.352Z,18.80
2023-01-20T01:58:57.328Z,19.60
2023-01-20T01:59:57.300Z,20.20
2023-01-20T02:00:57.294Z,20.30
2023-01-20T02:01:57.337Z,21.50
2023-01-20T02:02:57.206Z,21.00
2023-01-20T02:03:57.169Z,21.60
2023-01-20T02:04:57.150Z,21.10
2023-01-20T02:05:57.107Z,21.60
2023-01-20T02:06:57.079Z,20.90
2023-01-20T02:07:57.045Z,21.50
2023-01-20T02:08:57.034Z,23.00
2023-01-20T02:09:56.982Z,22.10
2023-01-20T02:10:56.955Z,22.70
2023-01-20T02:11:56.924Z,22.30
2023-01-20T02:12:56.891Z,22.50
2023-01-20T02:13:56.864Z,22.10
2023-01-20T02:14:56.832Z,22.20
2023-01-20T02:15:56.796Z,22.10
2023-01-20T02:16:56.767Z,22.20
2023-01-20T02:17:56.734Z,22.40
2023-01-20T02:18:56.706Z,22.10
2023-01-20T02:19:56.672Z,22.00
2023-01-20T02:20:56.676Z,22.40
2023-01-20T02:21:56.614Z,21.50
2023-01-20T02:22:56.603Z,23.30
2023-01-20T02:23:56.551Z,23.40
2023-01-20T02:24:56.540Z,23.20
2023-01-20T02:25:56.493Z,22.90
2023-01-20T02:26:56.458Z,23.60
2023-01-20T02:27:56.431Z,22.40
2023-01-20T02:28:56.392Z,22.00
2023-01-20T02:29:56.366Z,22.70
2023-01-20T02:30:56.329Z,22.80
2023-01-20T02:31:56.331Z,21.90
2023-01-20T02:32:56.272Z,22.70
2023-01-20T02:33:56.253Z,21.60
2023-01-20T02:34:56.206Z,22.10
2023-01-20T02:35:56.180Z,22.40
2023-01-20T02:36:56.149Z,22.10
2023-01-20T02:37:56.119Z,20.90
2023-01-20T02:38:56.103Z,21.50
2023-01-20T02:39:56.056Z,21.40
2023-01-20T02:40:56.042Z,21.20
2023-01-20T02:41:55.993Z,22.60
2023-01-20T02:42:55.964Z,22.30
2023-01-20T02:43:55.935Z,20.50
2023-01-20T02:44:55.902Z,21.10
2023-01-20T02:45:55.914Z,20.80
2023-01-20T02:46:55.837Z,19.20
2023-01-20T02:47:55.815Z,19.20
2023-01-20T02:48:55.773Z,20.50
2023-01-20T02:49:55.746Z,20.40
2023-01-20T02:50:55.724Z,20.40
2023-01-20T02:51:55.687Z,19.70
2023-01-20T02:52:55.649Z,19.50
2023-01-20T02:53:55.621Z,19.40
2023-01-20T02:54:55.587Z,19.80
2023-01-20T02:55:55.571Z,19.20
2023-01-20T02:56:55.549Z,19.50
2023-01-20T02:57:55.495Z,19.60
2023-01-20T02:58:55.470Z,19.20
2023-01-20T02:59:55.438Z,19.60
2023-01-20T03:00:55.423Z,19.60
2023-01-20T03:01:55.462Z,20.40
2023-01-20T03:02:55.344Z,19.40
2023-01-20T03:03:55.340Z,20.10
2023-01-20T03:04:55.285Z,19.10
2023-01-20T03:05:55.288Z,19.10
2023-01-20T03:06:55.221Z,18.90
2023-01-20T03:07:55.189Z,18.50
2023-01-20T03:08:55.156Z,18.00
2023-01-20T03:09:55.136Z,18.70
2023-01-20T03:10:55.096Z,17.80
2023-01-20T03:11:55.070Z,17.20
2023-01-20T03:12:55.056Z,17.20
2023-01-20T03:13:54.999Z,17.10
2023-01-20T03:14:54.967Z,16.30
2023-01-20T03:15:54.942Z,17.00
2023-01-20T03:16:54.970Z,17.40
2023-01-20T03:17:54.881Z,18.70
2023-01-20T03:18:54.859Z,17.80
2023-01-20T03:19:54.814Z,17.70
2023-01-20T03:20:54.843Z,17.00
2023-01-20T03:21:54.762Z,16.70
2023-01-20T03:22:54.721Z,16.30
2023-01-20T03:23:54.700Z,16.80
2023-01-20T03:24:54.671Z,16.70
2023-01-20T03:25:54.629Z,16.90
2023-01-20T03:26:54.600Z,16.50
2023-01-20T03:27:54.568Z,16.30
2023-01-20T03:28:54.566Z,16.10
2023-01-20T03:29:54.523Z,16.40
2023-01-20T03:30:54.606Z,16.20
2023-01-20T03:31:54.443Z,15.40
2023-01-20T03:32:54.412Z,15.60
2023-01-20T03:33:54.387Z,16.20
2023-01-20T03:34:54.352Z,16.00
2023-01-20T03:35:54.321Z,15.90
2023-01-20T03:36:54.291Z,15.30
2023-01-20T03:37:54.259Z,14.90
2023-01-20T03:38:54.236Z,14.80
2023-01-20T03:39:54.204Z,15.30
2023-01-20T03:40:54.166Z,14.50
2023-01-20T03:41:54.145Z,15.10
2023-01-20T03:42:54.125Z,15.40
2023-01-20T03:43:54.081Z,15.50
2023-01-20T03:44:54.071Z,14.10
2023-01-20T03:45:54.104Z,15.10
2023-01-20T03:46:53.980Z,13.70
2023-01-20T03:47:53.955Z,14.70
2023-01-20T03:48:53.924Z,14.80
2023-01-20T03:49:53.889Z,14.30
2023-01-20T03:50:53.870Z,14.80
2023-01-20T03:51:53.828Z,14.40
2023-01-20T03:52:53.795Z,13.20
2023-01-20T03:53:53.773Z,14.00
2023-01-20T03:54:53.736Z,13.40
2023-01-20T03:55:53.714Z,13.80
2023-01-20T03:56:53.676Z,14.00
2023-01-20T03:57:53.642Z,13.50
2023-01-20T03:58:53.616Z,13.70
2023-01-20T03:59:53.585Z,14.30
2023-01-20T04:00:53.586Z,15.00
2023-01-20T04:01:53.628Z,14.20
2023-01-20T04:02:53.493Z,15.40
2023-01-20T04:03:53.471Z,14.70
2023-01-20T04:04:53.430Z,15.80
2023-01-20T04:05:53.404Z,14.40
2023-01-20T04:06:53.365Z,14.60
2023-01-20T04:07:53.337Z,14.70
2023-01-20T04:08:55.128Z,14.50
2023-01-20T04:09:53.275Z,14.90
2023-01-20T04:10:53.244Z,14.50
2023-01-20T04:11:53.219Z,15.00
2023-01-20T04:12:53.180Z,14.60
2023-01-20T04:13:53.155Z,14.30
2023-01-20T04:14:53.123Z,14.60
2023-01-20T04:15:53.181Z,15.10
2023-01-20T04:16:53.091Z,14.80
2023-01-20T04:17:53.028Z,14.50
2023-01-20T04:18:52.998Z,14.40
2023-01-20T04:19:52.968Z,14.90
2023-01-20T04:20:52.937Z,14.50
2023-01-20T04:21:52.907Z,14.00
2023-01-20T04:22:52.874Z,14.90
2023-01-20T04:23:52.842Z,15.30
2023-01-20T04:24:52.821Z,15.30
2023-01-20T04:25:52.782Z,15.10
2023-01-20T04:26:52.750Z,15.30
2023-01-20T04:27:52.719Z,15.40
2023-01-20T04:28:52.690Z,16.20
2023-01-20T04:29:52.663Z,16.30
2023-01-20T04:30:52.734Z,15.40
2023-01-20T04:31:52.634Z,15.20
2023-01-20T04:32:52.583Z,15.00
2023-01-20T04:33:52.537Z,15.60
2023-01-20T04:34:52.510Z,16.10
2023-01-20T04:35:52.474Z,15.10
2023-01-20T04:36:52.450Z,16.20
2023-01-20T04:37:52.415Z,17.00
2023-01-20T04:38:52.382Z,16.10
2023-01-20T04:39:52.349Z,16.90
2023-01-20T04:40:52.318Z,15.90
2023-01-20T04:41:52.294Z,15.60
2023-01-20T04:42:52.257Z,16.70
2023-01-20T04:43:52.226Z,16.10
2023-01-20T04:44:52.196Z,16.30
2023-01-20T04:45:52.290Z,16.40
2023-01-20T04:46:52.133Z,16.00
2023-01-20T04:47:52.109Z,16.70
2023-01-20T04:48:52.108Z,15.70
2023-01-20T04:49:52.044Z,15.70
2023-01-20T04:50:52.057Z,15.50
2023-01-20T04:51:51.980Z,17.00
2023-01-20T04:52:51.949Z,16.00
2023-01-20T04:53:51.925Z,16.00
2023-01-20T04:54:51.887Z,16.40
2023-01-20T04:55:51.870Z,17.10
2023-01-20T04:56:51.826Z,16.90
2023-01-20T04:57:51.798Z,17.50
2023-01-20T04:58:51.777Z,17.50
2023-01-20T04:59:51.740Z,17.80
2023-01-20T05:00:51.722Z,18.90
2023-01-20T05:01:51.746Z,19.70
2023-01-20T05:02:51.677Z,18.10
2023-01-20T05:03:51.618Z,19.20
2023-01-20T05:04:51.600Z,20.80
2023-01-20T05:05:51.553Z,22.70
2023-01-20T05:06:51.526Z,23.40
2023-01-20T05:07:51.487Z,20.90
2023-01-20T05:08:51.462Z,19.30
2023-01-20T05:09:51.427Z,18.30
2023-01-20T05:10:51.396Z,17.20
2023-01-20T05:11:51.367Z,17.30
2023-01-20T05:12:51.335Z,17.20
2023-01-20T05:13:51.314Z,16.80
2023-01-20T05:14:51.274Z,16.80
2023-01-20T05:15:51.276Z,16.90
2023-01-20T05:16:51.215Z,18.20
2023-01-20T05:17:51.185Z,18.00
2023-01-20T05:18:51.151Z,17.00
2023-01-20T05:19:51.140Z,17.40
2023-01-20T05:20:51.124Z,16.80
2023-01-20T05:21:51.061Z,16.90
2023-01-20T05:22:51.045Z,17.50
2023-01-20T05:23:51.001Z,17.10
2023-01-20T05:24:50.967Z,17.40
2023-01-20T05:25:50.943Z,16.50
2023-01-20T05:26:50.929Z,16.30
2023-01-20T05:27:50.880Z,16.80
2023-01-20T05:28:50.844Z,17.20
2023-01-20T05:29:50.817Z,16.60
2023-01-20T05:30:50.819Z,16.20
2023-01-20T05:31:50.814Z,15.70
2023-01-20T05:32:50.723Z,16.70
2023-01-20T05:33:50.721Z,15.60
2023-01-20T05:34:50.661Z,16.60
2023-01-20T05:35:50.636Z,15.40
2023-01-20T05:36:50.619Z,14.30
2023-01-20T05:37:50.586Z,14.50
2023-01-20T05:38:50.543Z,16.30
2023-01-20T05:39:50.510Z,14.40
2023-01-20T05:40:50.480Z,14.80
2023-01-20T05:41:50.452Z,15.20
2023-01-20T05:42:50.417Z,14.90
2023-01-20T05:43:50.386Z,14.70
2023-01-20T05:44:50.355Z,14.70
2023-01-20T05:45:50.324Z,14.40
2023-01-20T05:46:50.292Z,14.70
2023-01-20T05:47:50.264Z,15.30
2023-01-20T05:48:50.234Z,14.10
2023-01-20T05:49:50.205Z,14.70
2023-01-20T05:50:50.170Z,14.90
2023-01-20T05:51:50.139Z,14.20
2023-01-20T05:52:50.129Z,15.00
2023-01-20T05:53:50.079Z,15.40
2023-01-20T05:54:50.058Z,15.20
2023-01-20T05:55:50.028Z,15.70
2023-01-20T05:56:49.992Z,14.30
2023-01-20T05:57:49.960Z,14.80
2023-01-20T05:58:49.928Z,15.10
2023-01-20T05:59:49.896Z,16.20
2023-01-20T06:00:49.877Z,16.00
2023-01-20T06:01:49.840Z,16.00
2023-01-20T06:02:49.863Z,16.50
2023-01-20T06:03:49.808Z,17.30
2023-01-20T06:04:49.741Z,15.00
2023-01-20T06:05:49.712Z,15.40
2023-01-20T06:06:49.678Z,14.40
2023-01-20T06:07:49.649Z,14.30
2023-01-20T06:08:49.660Z,13.90
2023-01-20T06:09:49.589Z,14.50
2023-01-20T06:10:50.628Z,14.30
2023-01-20T06:11:49.524Z,13.90
2023-01-20T06:12:49.502Z,13.60
2023-01-20T06:13:49.464Z,14.10
2023-01-20T06:14:49.433Z,14.80
2023-01-20T06:15:49.473Z,14.10
2023-01-20T06:16:49.371Z,14.40
2023-01-20T06:17:49.343Z,14.90
2023-01-20T06:18:49.315Z,15.70
2023-01-20T06:19:49.285Z,14.70
2023-01-20T06:20:49.250Z,14.40
2023-01-20T06:21:49.219Z,15.30
2023-01-20T06:22:49.185Z,15.30
2023-01-20T06:23:49.157Z,15.10
2023-01-20T06:24:49.145Z,15.70
2023-01-20T06:25:49.098Z,15.80
2023-01-20T06:26:49.065Z,15.70
2023-01-20T06:27:49.051Z,16.60
2023-01-20T06:28:49.001Z,16.20
2023-01-20T06:29:48.983Z,16.70
2023-01-20T06:30:48.956Z,15.90
2023-01-20T06:31:48.957Z,15.20
2023-01-20T06:32:48.889Z,15.40
2023-01-20T06:33:48.851Z,15.50
2023-01-20T06:34:48.818Z,15.40
2023-01-20T06:35:48.789Z,15.20
2023-01-20T06:36:48.759Z,15.60
2023-01-20T06:37:48.729Z,15.80
2023-01-20T06:38:48.713Z,15.90
2023-01-20T06:39:48.664Z,14.90
2023-01-20T06:40:48.659Z,15.50
2023-01-20T06:41:48.601Z,16.50
2023-01-20T06:42:48.573Z,16.40
2023-01-20T06:43:48.545Z,16.10
2023-01-20T06:44:48.518Z,16.00
2023-01-20T06:45:48.477Z,14.80
2023-01-20T06:46:48.556Z,17.80
2023-01-20T06:47:48.416Z,16.40
2023-01-20T06:48:48.388Z,14.70
2023-01-20T06:49:48.363Z,14.70
2023-01-20T06:50:48.329Z,15.60
2023-01-20T06:51:48.295Z,16.30
2023-01-20T06:52:48.275Z,15.60
2023-01-20T06:53:48.243Z,16.30
2023-01-20T06:54:48.217Z,16.40
2023-01-20T06:55:48.173Z,17.20
2023-01-20T06:56:48.161Z,15.60
2023-01-20T06:57:48.199Z,16.40
2023-01-20T06:58:48.155Z,15.50
2023-01-20T06:59:48.051Z,15.00
2023-01-20T07:00:48.063Z,15.90
2023-01-20T07:01:48.066Z,16.10
2023-01-20T07:02:48.014Z,16.00
2023-01-20T07:03:47.930Z,16.20
2023-01-20T07:04:47.894Z,17.70
2023-01-20T07:05:47.866Z,17.00
2023-01-20T07:06:47.837Z,15.50
2023-01-20T07:07:47.806Z,15.70
2023-01-20T07:08:47.772Z,15.80
2023-01-20T07:09:47.744Z,15.80
2023-01-20T07:10:47.711Z,15.50
2023-01-20T07:11:47.680Z,14.80
2023-01-20T07:12:47.670Z,15.20
2023-01-20T07:13:47.624Z,15.80
2023-01-20T07:14:47.596Z,14.80
2023-01-20T07:15:47.557Z,15.80
2023-01-20T07:16:47.608Z,14.40
2023-01-20T07:17:47.499Z,14.80
2023-01-20T07:18:47.469Z,15.40
2023-01-20T07:19:47.441Z,15.10
2023-01-20T07:20:47.407Z,15.60
2023-01-20T07:21:47.372Z,15.00
2023-01-20T07:22:47.363Z,15.50
2023-01-20T07:23:47.311Z,15.40
2023-01-20T07:24:47.281Z,15.60
2023-01-20T07:25:47.255Z,15.90
2023-01-20T07:26:47.222Z,16.10
2023-01-20T07:27:47.188Z,15.70
2023-01-20T07:28:47.184Z,16.60
2023-01-20T07:29:47.125Z,15.50
2023-01-20T07:30:47.124Z,15.00
2023-01-20T07:31:47.190Z,15.50
2023-01-20T07:32:47.033Z,15.90
2023-01-20T07:33:47.055Z,15.50
2023-01-20T07:34:49.404Z,14.80
2023-01-20T07:35:46.937Z,15.40
2023-01-20T07:36:46.912Z,16.30
2023-01-20T07:37:46.875Z,15.60
2023-01-20T07:38:46.849Z,15.20
2023-01-20T07:39:46.817Z,14.40
2023-01-20T07:40:46.813Z,14.50
2023-01-20T07:41:46.771Z,14.40
2023-01-20T07:42:46.726Z,13.90
2023-01-20T07:43:46.716Z,14.10
2023-01-20T07:44:46.691Z,13.50
2023-01-20T07:45:46.730Z,13.90
2023-01-20T07:46:46.603Z,13.60
2023-01-20T07:47:46.577Z,14.50
2023-01-20T07:48:46.548Z,14.30
2023-01-20T07:49:46.506Z,14.40
2023-01-20T07:50:46.485Z,14.40
2023-01-20T07:51:46.441Z,14.30
2023-01-20T07:52:46.412Z,13.80
2023-01-20T07:53:46.391Z,13.90
2023-01-20T07:54:46.380Z,14.00
2023-01-20T07:55:46.422Z,13.40
2023-01-20T07:56:46.285Z,14.30
2023-01-20T07:57:46.253Z,13.40
2023-01-20T07:58:46.259Z,13.00
2023-01-20T07:59:46.189Z,13.40
2023-01-20T08:00:46.211Z,13.80
2023-01-20T08:01:46.320Z,13.00
2023-01-20T08:02:46.102Z,13.70
2023-01-20T08:03:46.071Z,13.80
2023-01-20T08:04:46.131Z,13.30
2023-01-20T08:05:46.010Z,13.60
2023-01-20T08:06:45.973Z,13.80
2023-01-20T08:07:45.959Z,14.50
2023-01-20T08:08:45.912Z,13.30
2023-01-20T08:09:45.877Z,14.40
2023-01-20T08:10:45.900Z,13.10
2023-01-20T08:11:45.819Z,13.90
2023-01-20T08:12:45.792Z,14.00
2023-01-20T08:13:45.758Z,14.10
2023-01-20T08:14:45.721Z,13.50
2023-01-20T08:15:45.688Z,13.30
2023-01-20T08:16:45.755Z,13.10
2023-01-20T08:17:45.628Z,13.30
2023-01-20T08:18:45.595Z,13.50
2023-01-20T08:19:45.565Z,12.40
2023-01-20T08:20:45.540Z,13.20
2023-01-20T08:21:45.500Z,13.50
2023-01-20T08:22:45.472Z,14.00
2023-01-20T08:23:45.436Z,13.60
2023-01-20T08:24:45.417Z,13.90
2023-01-20T08:25:45.373Z,13.80
2023-01-20T08:26:45.348Z,13.70
2023-01-20T08:27:45.312Z,13.60
2023-01-20T08:28:45.282Z,15.00
2023-01-20T08:29:45.260Z,15.30
2023-01-20T08:30:45.372Z,14.00
2023-01-20T08:31:45.351Z,13.60
2023-01-20T08:32:45.213Z,14.80
2023-01-20T08:33:45.124Z,13.90
2023-01-20T08:34:45.095Z,13.40
2023-01-20T08:35:45.061Z,14.00
2023-01-20T08:36:45.032Z,13.90
2023-01-20T08:37:45.003Z,15.10
2023-01-20T08:38:45.023Z,14.00
2023-01-20T08:39:44.953Z,15.10
2023-01-20T08:40:44.956Z,13.80
2023-01-20T08:41:44.891Z,14.90
2023-01-20T08:42:44.850Z,15.60
2023-01-20T08:43:44.935Z,15.30
2023-01-20T08:44:44.823Z,15.80
2023-01-20T08:45:44.832Z,15.70
2023-01-20T08:46:44.721Z,15.90
2023-01-20T08:47:44.687Z,16.60
2023-01-20T08:48:44.709Z,16.90
2023-01-20T08:49:44.633Z,16.50
2023-01-20T08:50:44.592Z,16.50
2023-01-20T08:51:44.636Z,16.40
2023-01-20T08:52:44.558Z,18.20
2023-01-20T08:53:44.525Z,18.40
2023-01-20T08:54:44.474Z,17.00
2023-01-20T08:55:44.443Z,19.10
2023-01-20T08:56:44.412Z,18.20
2023-01-20T08:57:44.378Z,17.00
2023-01-20T08:58:44.345Z,17.40
2023-01-20T08:59:44.325Z,18.40
2023-01-20T09:00:44.283Z,18.80
2023-01-20T09:01:44.295Z,19.60
2023-01-20T09:02:44.257Z,18.90
2023-01-20T09:03:55.438Z,17.50
2023-01-20T09:04:44.177Z,17.00
2023-01-20T09:05:44.133Z,16.80
2023-01-20T09:06:44.121Z,17.80
2023-01-20T09:07:44.076Z,18.80
2023-01-20T09:08:44.121Z,18.70
2023-01-20T09:09:43.998Z,19.30
2023-01-20T09:10:43.974Z,24.70
2023-01-20T09:11:44.023Z,22.00
2023-01-20T09:12:43.919Z,18.50
2023-01-20T09:13:43.874Z,20.60
2023-01-20T09:14:43.853Z,24.90
2023-01-20T09:15:43.840Z,32.50
2023-01-20T09:16:43.783Z,32.00
2023-01-20T09:17:43.762Z,19.30
2023-01-20T09:18:43.724Z,19.40
2023-01-20T09:19:43.696Z,18.80
2023-01-20T09:20:43.680Z,21.30
2023-01-20T09:21:43.629Z,21.20
2023-01-20T09:22:43.599Z,19.10
2023-01-20T09:23:43.561Z,19.90
2023-01-20T09:24:43.533Z,20.90
2023-01-20T09:25:43.501Z,20.00
2023-01-20T09:26:43.470Z,20.30
2023-01-20T09:27:43.438Z,20.20
2023-01-20T09:28:43.417Z,19.50
2023-01-20T09:29:43.381Z,21.20
2023-01-20T09:30:43.509Z,21.40
2023-01-20T09:31:43.505Z,21.70
2023-01-20T09:32:43.284Z,22.10
2023-01-20T09:33:43.252Z,22.30
2023-01-20T09:34:43.229Z,22.30
2023-01-20T09:35:43.199Z,21.40
2023-01-20T09:36:43.240Z,21.30
2023-01-20T09:37:43.131Z,20.60
2023-01-20T09:38:43.104Z,20.80
2023-01-20T09:39:43.077Z,20.60
2023-01-20T09:40:43.038Z,21.90
2023-01-20T09:41:43.005Z,22.10
2023-01-20T09:42:42.973Z,21.80
2023-01-20T09:43:42.940Z,21.80
2023-01-20T09:44:42.958Z,22.00
2023-01-20T09:45:42.886Z,21.60
2023-01-20T09:46:42.849Z,21.70
2023-01-20T09:47:42.821Z,22.40
2023-01-20T09:48:42.795Z,22.90
2023-01-20T09:49:42.760Z,20.10
2023-01-20T09:50:42.761Z,22.20
2023-01-20T09:51:42.693Z,21.70
2023-01-20T09:52:42.696Z,21.60
2023-01-20T09:53:42.638Z,20.80
2023-01-20T09:54:42.601Z,21.80
2023-01-20T09:55:42.570Z,21.00
2023-01-20T09:56:42.548Z,21.20
2023-01-20T09:57:42.512Z,20.90
2023-01-20T09:58:42.483Z,21.70
2023-01-20T09:59:42.442Z,20.80
2023-01-20T10:00:42.413Z,21.20
2023-01-20T10:01:42.395Z,20.00
2023-01-20T10:02:42.352Z,21.50
2023-01-20T10:03:42.314Z,20.20
2023-01-20T10:04:42.291Z,20.10
2023-01-20T10:05:42.302Z,19.90
2023-01-20T10:06:42.268Z,20.20
2023-01-20T10:07:42.204Z,19.60
2023-01-20T10:08:45.940Z,19.00
2023-01-20T10:09:42.143Z,17.70
2023-01-20T10:10:42.101Z,17.20
2023-01-20T10:11:42.157Z,17.10
2023-01-20T10:12:42.048Z,17.30
2023-01-20T10:13:42.026Z,17.10
2023-01-20T10:14:41.983Z,15.40
2023-01-20T10:15:42.030Z,16.40
2023-01-20T10:16:41.930Z,17.60
2023-01-20T10:17:41.898Z,15.90
2023-01-20T10:18:41.855Z,16.50
2023-01-20T10:19:41.824Z,16.60
2023-01-20T10:20:41.819Z,15.80
2023-01-20T10:21:41.759Z,17.00
2023-01-20T10:22:41.741Z,16.00
2023-01-20T10:23:41.698Z,17.10
2023-01-20T10:24:41.682Z,18.10
2023-01-20T10:25:41.635Z,16.30
2023-01-20T10:26:41.619Z,15.70
2023-01-20T10:27:41.599Z,17.20
2023-01-20T10:28:41.546Z,17.00
2023-01-20T10:29:41.517Z,17.50
2023-01-20T10:30:41.544Z,17.40
2023-01-20T10:31:41.548Z,17.60
2023-01-20T10:32:41.418Z,16.70
2023-01-20T10:33:41.385Z,18.00
2023-01-20T10:34:41.355Z,18.00
2023-01-20T10:35:41.387Z,16.40
2023-01-20T10:36:41.297Z,16.80
2023-01-20T10:37:41.263Z,17.90
2023-01-20T10:38:41.232Z,17.70
2023-01-20T10:39:41.224Z,18.40
2023-01-20T10:40:41.242Z,18.40
2023-01-20T10:41:41.140Z,19.00
2023-01-20T10:42:41.106Z,18.00
2023-01-20T10:43:41.070Z,16.80
2023-01-20T10:44:41.042Z,16.10
2023-01-20T10:45:41.011Z,17.00
2023-01-20T10:46:41.113Z,17.70
2023-01-20T10:47:40.957Z,17.70
2023-01-20T10:48:40.933Z,17.90
2023-01-20T10:49:40.889Z,19.20
2023-01-20T10:50:40.878Z,17.10
2023-01-20T10:51:40.836Z,16.50
2023-01-20T10:52:40.795Z,17.50
2023-01-20T10:53:40.765Z,17.00
2023-01-20T10:54:40.737Z,18.60
2023-01-20T10:55:40.713Z,17.90
2023-01-20T10:56:40.773Z,16.80
2023-01-20T10:57:40.650Z,18.10
2023-01-20T10:58:40.609Z,18.10
2023-01-20T10:59:40.576Z,16.70
2023-01-20T11:00:40.544Z,16.50
2023-01-20T11:01:40.620Z,17.40
2023-01-20T11:02:40.548Z,17.90
2023-01-20T11:03:40.455Z,16.70
2023-01-20T11:04:40.423Z,17.60
2023-01-20T11:05:40.392Z,17.30
2023-01-20T11:06:40.359Z,17.20
2023-01-20T11:07:40.339Z,16.80
2023-01-20T11:08:40.300Z,17.30
2023-01-20T11:09:40.266Z,16.90
2023-01-20T11:10:40.241Z,18.70
2023-01-20T11:11:40.225Z,18.00
2023-01-20T11:12:40.191Z,16.90
2023-01-20T11:13:40.145Z,18.00
2023-01-20T11:14:40.125Z,17.40
2023-01-20T11:15:40.088Z,17.20
2023-01-20T11:16:40.168Z,16.60
2023-01-20T11:17:40.028Z,17.30
2023-01-20T11:18:39.993Z,18.00
2023-01-20T11:19:39.957Z,17.20
2023-01-20T11:20:39.924Z,16.90
2023-01-20T11:21:39.915Z,16.90
2023-01-20T11:22:39.864Z,17.00
2023-01-20T11:23:39.838Z,16.60
2023-01-20T11:24:39.805Z,16.90
2023-01-20T11:25:39.797Z,16.80
2023-01-20T11:26:39.740Z,16.90
2023-01-20T11:27:39.709Z,17.00
2023-01-20T11:28:39.697Z,17.00
2023-01-20T11:29:39.649Z,16.20
2023-01-20T11:30:39.628Z,18.20
2023-01-20T11:31:39.728Z,27.00
2023-01-20T11:32:39.554Z,28.60
2023-01-20T11:33:39.524Z,25.40
2023-01-20T11:34:39.496Z,20.30
2023-01-20T11:35:39.464Z,18.20
2023-01-20T11:36:39.432Z,17.90
2023-01-20T11:37:39.503Z,17.50
2023-01-20T11:38:39.443Z,16.50
2023-01-20T11:39:39.349Z,17.10
2023-01-20T11:40:39.367Z,16.80
2023-01-20T11:41:39.283Z,17.10
2023-01-20T11:42:39.263Z,17.30
2023-01-20T11:43:39.226Z,17.60
2023-01-20T11:44:39.209Z,16.70
2023-01-20T11:45:39.155Z,17.40
2023-01-20T11:46:39.213Z,18.50
2023-01-20T11:47:39.104Z,19.00
2023-01-20T11:48:39.080Z,19.00
2023-01-20T11:49:39.036Z,21.10
2023-01-20T11:50:39.009Z,19.40
2023-01-20T11:51:39.008Z,19.10
2023-01-20T11:52:38.942Z,18.20
2023-01-20T11:53:38.909Z,17.60
2023-01-20T11:54:38.880Z,18.20
2023-01-20T11:55:38.848Z,17.20
2023-01-20T11:56:38.815Z,18.60
2023-01-20T11:57:38.791Z,17.80
2023-01-20T11:58:38.755Z,18.10
2023-01-20T11:59:38.725Z,18.20
2023-01-20T12:00:38.712Z,17.50
2023-01-20T12:01:38.693Z,18.30
2023-01-20T12:02:38.632Z,19.30
2023-01-20T12:03:38.600Z,18.90
2023-01-20T12:04:38.654Z,17.30
2023-01-20T12:05:38.546Z,18.00
2023-01-20T12:06:38.516Z,18.00
2023-01-20T12:07:38.490Z,17.50
2023-01-20T12:08:38.446Z,18.30
2023-01-20T12:09:38.417Z,17.90
2023-01-20T12:10:38.391Z,18.40
2023-01-20T12:11:38.360Z,18.00
2023-01-20T12:12:38.345Z,18.90
2023-01-20T12:13:38.293Z,18.20
2023-01-20T12:14:38.281Z,17.60
2023-01-20T12:15:38.235Z,17.60
2023-01-20T12:16:38.258Z,18.20
2023-01-20T12:17:38.192Z,18.50
2023-01-20T12:18:38.141Z,18.20
2023-01-20T12:19:38.126Z,17.90
2023-01-20T12:20:53.656Z,18.70
2023-01-20T12:21:38.125Z,18.10
2023-01-20T12:22:38.019Z,18.10
2023-01-20T12:23:37.994Z,17.40
2023-01-20T12:24:42.975Z,17.60
2023-01-20T12:25:37.947Z,16.60
2023-01-20T12:26:37.897Z,17.20
2023-01-20T12:27:37.976Z,16.60
2023-01-20T12:28:37.855Z,15.70
2023-01-20T12:29:37.808Z,17.00
2023-01-20T12:30:37.877Z,16.00
2023-01-20T12:31:37.862Z,16.30
2023-01-20T12:32:37.735Z,16.60
2023-01-20T12:33:37.748Z,17.30
2023-01-20T12:34:37.721Z,17.30
2023-01-20T12:35:37.732Z,17.50
2023-01-20T12:36:37.624Z,22.20
2023-01-20T12:37:37.592Z,21.40
2023-01-20T12:38:37.589Z,22.10
2023-01-20T12:39:37.502Z,21.80
2023-01-20T12:40:37.507Z,20.50
2023-01-20T12:41:37.501Z,18.80
2023-01-20T12:42:37.444Z,19.70
2023-01-20T12:43:37.496Z,19.60
2023-01-20T12:44:37.358Z,22.40
2023-01-20T12:45:37.405Z,22.50
2023-01-20T12:46:37.363Z,22.30
2023-01-20T12:47:37.356Z,22.70
2023-01-20T12:48:37.275Z,20.10
2023-01-20T12:49:37.301Z,22.60
2023-01-20T12:50:37.241Z,20.40
2023-01-20T12:51:37.252Z,19.80